Terminal Aerodrome Forecast
Issued by NWS

Home | Current Version | Previous Version | Text Only | Print | Product List | Glossary On
Versions: 1 2 3 4 5 6 7 8 9 10 11 12 13 14
000
FTUS45 KABQ 300500
TAFSAF
TAF
KSAF 300540Z 3006/3106 14015KT P6SM VCSH SCT019 BKN035
      TEMPO 3009/3011 3SM -SNRA SCT009 BKN019
     FM301200 13011KT 1SM -SN SCT005 BKN010
     FM302100 12009KT 3SM -SN BR SCT005 BKN010
     FM310400 13008KT 3SM -SN BR BKN005=

USA.gov is the U.S. government's official web portal to all federal, state and local government web resources and services.